• Join FlightAware (Why Join?)
  • Login
  • US Flag 
01:55AM EDT


 

Airport Tracker/Info


-or-


 

Live Flight TrackerFlight Track Log ✈ AWE3202 ✈ 30-Jul-2013 ✈ KJAX - KDCA

Flight Track Log - Related Links

Times and Time Zones

All times are in EDT time to prevent confusion due to time zone crossing. See the AWE3202 flight status page for this flight to view local times or setup timezone preferences in your user account.

Time Position Orientation Groundspeed Altitude Reporting Facility
EDT Latitude Longitude Course Direction KTS MPH feet Rate Location/Type
06:39PM 30.4928 -81.7042 19° North 169 194 700  Level Jacksonville Center
06:40PM 30.5328 -81.7375 324° Northwest 234 269 2,900 2,460 Climbing Jacksonville Center
06:41PM 30.5758 -81.6742 52° Northeast 250 288 6,000 3,300 Climbing Jacksonville Center
06:42PM 30.7736 -81.3617 46° Northeast  Level FlightAware Approximate
06:42PM 30.6275 -81.6058 49° Northeast 261 300 9,500  Level Jacksonville Center
06:43PM 30.8500 -81.2916 90° East  Level FlightAware Approximate
06:43PM 30.6936 -81.5517 35° Northeast 268 308 12,100  Level Jacksonville Center
06:44PM 30.9383 -81.2480 19° North  Level FlightAware Approximate
06:44PM 30.7811 -81.5336 10° North 285 328 15,000  Level Jacksonville Center
06:45PM 30.8728 -81.5106 12° North 309 356 17,700 2,340 Climbing Jacksonville Center
06:46PM 30.9686 -81.4872 12° North 337 388 19,700 2,040 Climbing Jacksonville Center
06:47PM 31.0664 -81.4617 13° North 350 403 21,800 1,620 Climbing Jacksonville Center
06:48PM 31.1706 -81.4406 10° North 361 415 23,000 660 Climbing Jacksonville Center
06:49PM 31.2853 -81.4122 12° North 388 447 23,200 1,620 Climbing Jacksonville Center
06:50PM 31.3933 -81.3836 13° North 405 466 26,300 2,280 Climbing Jacksonville Center
06:51PM 31.5161 -81.3525 12° North 411 473 27,800 1,260 Climbing Jacksonville Center
06:52PM 31.6203 -81.3286 11° North 416 479 28,900 1,200 Climbing Jacksonville Center
06:53PM 31.7514 -81.2972 12° North 425 489 30,200 1,200 Climbing Jacksonville Center
06:54PM 31.8639 -81.2683 12° North 425 489 31,300 1,020 Climbing Jacksonville Center
06:55PM 31.9844 -81.2392 12° North 431 496 32,300 960 Climbing Jacksonville Center
06:56PM 32.1031 -81.2078 13° North 431 496 33,300 960 Climbing Jacksonville Center
06:57PM 32.1981 -81.1200 38° Northeast 424 488 34,300 840 Climbing Jacksonville Center
06:58PM 32.2906 -81.0272 40° Northeast 428 493 35,000 300 Climbing Jacksonville Center
06:59PM 32.3853 -80.9442 37° Northeast 428 493 35,000  Level Jacksonville Center
07:00PM 32.4822 -80.8558 38° Northeast 428 493 35,000  Level Jacksonville Center
07:01PM 32.5808 -80.7700 36° Northeast 428 493 35,000  Level Jacksonville Center
07:02PM 32.6775 -80.6836 37° Northeast 434 499 35,000  Level Jacksonville Center
07:03PM 32.7742 -80.5997 36° Northeast 434 499 35,000  Level Jacksonville Center
07:04PM 32.8747 -80.5131 36° Northeast 434 499 35,000  Level Jacksonville Center
07:05PM 32.9714 -80.4289 36° Northeast 434 499 35,000  Level Jacksonville Center
07:06PM 33.0575 -80.3497 38° Northeast 439 505 35,000  Level Jacksonville Center
07:07PM 33.1619 -80.2600 36° Northeast 439 505 35,000  Level Jacksonville Center
07:08PM 33.2625 -80.1750 35° Northeast 439 505 35,000  Level Jacksonville Center
07:09PM 33.3586 -80.0875 37° Northeast 439 505 35,000  Level Jacksonville Center
07:10PM 33.4547 -79.9997 37° Northeast 439 505 35,000  Level Jacksonville Center
07:11PM 33.5528 -79.9094 37° Northeast 439 505 35,000  Level Jacksonville Center
07:12PM 33.6508 -79.8236 36° Northeast 434 499 35,000  Level Jacksonville Center
07:13PM 33.7489 -79.7353 37° Northeast 434 499 35,000  Level Jacksonville Center
07:14PM 33.8447 -79.6469 37° Northeast 434 499 35,000  Level Jacksonville Center
07:17PM 34.0853 -79.4306 37° Northeast 435 501 35,000  Level Washington Center
07:18PM 34.1842 -79.3400 37° Northeast 435 501 35,000  Level Washington Center
07:19PM 34.2828 -79.2514 37° Northeast 440 506 35,000  Level Washington Center
07:20PM 34.3931 -79.1908 24° Northeast 435 501 35,000  Level Washington Center
07:21PM 34.5014 -79.1275 26° Northeast 425 489 35,000  Level Washington Center
07:22PM 34.6117 -79.0667 24° Northeast 420 483 35,000  Level Washington Center
07:23PM 34.7178 -79.0031 26° Northeast 420 483 35,000  Level Washington Center
07:24PM 34.8261 -78.9392 26° Northeast 425 489 35,000  Level Washington Center
07:25PM 34.9364 -78.8756 25° Northeast 425 489 35,000  Level Washington Center
07:26PM 35.0444 -78.8139 25° Northeast 430 495 35,000  Level Washington Center
07:27PM 35.1525 -78.7497 26° Northeast 430 495 35,000  Level Washington Center
07:28PM 35.2606 -78.6878 25° Northeast 430 495 35,000  Level Washington Center
07:29PM 35.3772 -78.6158 27° Northeast 430 495 35,000  Level Washington Center
07:30PM 35.4853 -78.5511 26° Northeast 424 488 35,000 -420 Level Washington Center
07:31PM 35.5847 -78.4933 25° Northeast 429 494 34,200 -1,020 Descending Washington Center
07:32PM 35.7075 -78.4211 26° Northeast 434 499 33,000 -1,200 Descending Washington Center
07:33PM 35.8175 -78.3558 26° Northeast 429 494 31,800 -1,200 Descending Washington Center
07:34PM 35.9294 -78.2906 25° Northeast 429 494 30,700 -1,200 Descending Washington Center
07:35PM 36.0439 -78.2200 26° Northeast 434 499 29,500 -1,320 Descending Washington Center
07:36PM 36.1581 -78.1517 26° Northeast 440 506 28,200 -1,320 Descending Washington Center
07:37PM 36.2719 -78.0833 26° Northeast 446 513 27,000 -600 Descending Washington Center
07:38PM 36.3819 -78.0144 27° Northeast 446 513 27,000  Level Washington Center
07:39PM 36.4939 -77.9483 25° Northeast 446 513 27,000  Level Washington Center
07:40PM 36.6036 -77.8792 27° Northeast 446 513 27,000 -1,020 Level Washington Center
07:41PM 36.7178 -77.8100 26° Northeast 446 513 25,000 -1,740 Descending Washington Center
07:42PM 36.8231 -77.7456 26° Northeast 438 504 23,600 -1,200 Descending Washington Center
07:43PM 36.9244 -77.6808 27° Northeast 419 482 22,600 -840 Descending Washington Center
07:44PM 37.0256 -77.6158 27° Northeast 413 475 22,000 -360 Descending Washington Center
07:45PM 37.1206 -77.5583 26° Northeast 413 475 22,000  Level Washington Center
07:46PM 37.2217 -77.4958 26° Northeast 413 475 22,000  Level Washington Center
07:47PM 37.3250 -77.4306 27° Northeast 413 475 22,000  Level Washington Center
07:48PM 37.4364 -77.3625 26° Northeast 413 475 22,000 -360 Level Washington Center
07:49PM 37.5456 -77.3100 21° North 408 470 21,400 -1,260 Descending Washington Center
07:50PM 37.6586 -77.2864 North 402 463 19,500 -1,800 Descending Washington Center
07:51PM 37.7633 -77.2650 North 397 457 17,800 -1,860 Descending Washington Center
07:52PM 37.8678 -77.2436 North 390 449 15,900 -1,860 Descending Washington Center
07:53PM 37.9703 -77.2222 North 379 436 14,200 -1,800 Descending Washington Center
07:54PM 38.0664 -77.2058 North 367 422 12,300 -1,740 Descending Washington Center
07:55PM 38.1606 -77.1842 10° North 352 405 10,700 -1,200 Descending Washington Center
07:56PM 38.2381 -77.1700 North 333 383 10,000 -360 Descending Washington Center
07:57PM 38.3239 -77.1372 17° North 307 353 10,000 -660 Level Washington Center
07:58PM 38.3847 -77.0989 26° Northeast 266 306 8,700 -1,500 Descending Washington Center
07:59PM 38.4478 -77.0708 19° North 243 280 7,100 -1,500 Descending Washington Center
08:00PM 38.5064 -77.0536 13° North 224 258 5,800 -1,440 Descending Washington Center
08:01PM 38.5628 -77.0467 North 211 243 4,200 -1,200 Descending Washington Center
08:02PM 38.6189 -77.0425 North 200 230 3,400 -960 Descending Washington Center
08:02PM 38.6500 -77.0333 13° North 194 223 2,700 -600 Descending Potomac TRACON
08:03PM 38.7000 -77.0333 360° North 188 216 2,500 -480 Descending Potomac TRACON
08:04PM 38.7500 -77.0333 360° North 170 196 1,800 -720 Descending Potomac TRACON
08:05PM 38.7833 -77.0333 360° North 142 163 1,100 -720 Descending Potomac TRACON
08:06PM 38.8333 -77.0333 360° North 142 163 500 -600 Descending Potomac TRACON